Time;durP1;ratioP1;P1;durP2;ratioP2;P2;SDS_P1;SDS_P2;PMS_P1;PMS_P2;Temp;Humidity;BMP_temperature;BMP_pressure;BME280_temperature;BME280_humidity;BME280_pressure;Samples;Min_cycle;Max_cycle;Signal;HPM_P1;HPM_P2
2023/05/31 00:01:35;;;;;;;15.20;10.50;;;;;;;13.13;100.00;99336.91;105657;1254;74220;-69
2023/05/31 00:04:02;;;;;;;18.10;9.60;;;;;;;13.06;100.00;99337.63;105651;1254;69150;-69
2023/05/31 00:06:29;;;;;;;18.20;8.30;;;;;;;13.00;100.00;99338.94;105703;1258;72158;-69
2023/05/31 00:08:56;;;;;;;11.60;7.60;;;;;;;13.02;100.00;99343.15;105494;1257;61625;-70
2023/05/31 00:11:22;;;;;;;16.70;8.40;;;;;;;13.32;97.68;99347.77;105604;1261;61383;-71
2023/05/31 00:13:49;;;;;;;12.50;6.50;;;;;;;13.14;99.76;99347.73;105693;1259;75066;-76
2023/05/31 00:16:16;;;;;;;13.60;6.20;;;;;;;13.10;99.94;99351.68;106740;1254;68887;-71
2023/05/31 00:19:03;;;;;;;7.70;6.10;;;;;;;13.05;100.00;99360.01;108989;1254;71408;-71
2023/05/31 00:21:30;;;;;;;8.70;5.60;;;;;;;13.02;100.00;99354.67;109044;1254;60717;-71
2023/05/31 00:23:56;;;;;;;12.50;6.10;;;;;;;13.10;100.00;99358.15;107979;1257;59681;-71
2023/05/31 00:26:23;;;;;;;9.00;6.50;;;;;;;13.10;100.00;99359.33;105727;1257;75092;-72
2023/05/31 00:28:50;;;;;;;8.80;6.10;;;;;;;13.09;100.00;99359.45;105738;1254;69134;-75
2023/05/31 00:31:17;;;;;;;6.80;5.70;;;;;;;13.09;100.00;99359.83;105616;1260;72362;-70
2023/05/31 00:33:46;;;;;;;7.20;5.50;;;;;;;13.06;100.00;99360.00;105862;1257;61726;-72
2023/05/31 00:36:13;;;;;;;8.80;6.00;;;;;;;13.06;100.00;99361.67;105910;1254;61330;-69
2023/05/31 00:38:40;;;;;;;9.20;6.10;;;;;;;13.14;100.00;99361.27;105815;1256;74909;-70
2023/05/31 00:41:08;;;;;;;9.40;6.40;;;;;;;13.23;99.76;99363.92;105875;1254;69144;-71
2023/05/31 00:43:35;;;;;;;;;;;;;;;13.09;100.00;99362.67;105915;1254;72944;-69
2023/05/31 00:46:02;;;;;;;14.00;6.70;;;;;;;13.13;100.00;99366.16;105561;1254;62107;-70
2023/05/31 00:48:29;;;;;;;7.90;6.10;;;;;;;13.17;100.00;99376.56;105622;1262;61340;-69
2023/05/31 00:50:56;;;;;;;9.90;6.70;;;;;;;13.23;99.67;99381.35;105764;1256;74552;-70
2023/05/31 00:53:23;;;;;;;9.30;5.90;;;;;;;13.24;99.39;99379.13;105642;1254;68686;-70
2023/05/31 00:55:50;;;;;;;9.20;6.00;;;;;;;13.27;99.29;99382.15;105678;1254;73208;-69
2023/05/31 00:58:18;;;;;;;12.50;7.00;;;;;;;13.21;99.99;99387.92;105830;1254;61610;-70
2023/05/31 01:00:45;;;;;;;15.30;7.40;;;;;;;13.21;100.00;99388.40;105693;1254;61308;-72
2023/05/31 01:03:12;;;;;;;17.40;9.60;;;;;;;13.22;99.98;99388.13;105933;1256;74787;-68
2023/05/31 01:05:39;;;;;;;19.30;11.40;;;;;;;13.24;99.95;99389.96;105992;1254;68976;-70
2023/05/31 01:08:06;;;;;;;20.30;11.80;;;;;;;13.20;100.00;99389.65;105942;1256;72491;-71
2023/05/31 01:10:34;;;;;;;23.60;11.10;;;;;;;13.20;100.00;99393.64;105943;1253;61727;-71
2023/05/31 01:13:16;;;;;;;18.90;10.80;;;;;;;13.17;99.84;99391.92;105789;1259;62385;-69
2023/05/31 01:16:06;;;;;;;16.50;8.80;;;;;;;13.22;100.00;99396.82;105861;1257;75099;-70
2023/05/31 01:18:48;;;;;;;10.50;6.70;;;;;;;13.25;99.76;99400.58;105793;1254;68668;-70
2023/05/31 01:21:19;;;;;;;13.70;7.90;;;;;;;13.30;99.10;99397.98;105846;1257;72645;-71
2023/05/31 01:24:05;;;;;;;15.10;7.60;;;;;;;13.44;97.99;99404.20;105804;1254;61684;-70
2023/05/31 01:26:49;;;;;;;9.50;6.70;;;;;;;13.55;96.21;99408.41;105870;1253;61343;-70
2023/05/31 01:29:21;;;;;;;9.90;6.30;;;;;;;13.46;96.83;99404.67;105858;1254;74637;-73
2023/05/31 01:31:48;;;;;;;13.90;7.10;;;;;;;13.36;97.70;99401.52;105985;1255;67268;-75
2023/05/31 01:34:15;;;;;;;11.40;6.80;;;;;;;13.25;98.67;99405.27;105687;1257;72478;-73
2023/05/31 01:36:41;;;;;;;11.10;6.30;;;;;;;13.08;100.00;99403.91;105992;1257;61605;-68
2023/05/31 01:39:11;;;;;;;;;;;;;;;12.93;100.00;99401.47;105923;1253;61349;-71
2023/05/31 01:41:42;;;;;;;9.70;7.00;;;;;;;12.83;100.00;99409.35;106033;1257;74583;-70
2023/05/31 01:44:09;;;;;;;10.60;6.60;;;;;;;12.83;100.00;99415.87;105868;1254;67674;-71
2023/05/31 01:46:36;;;;;;;8.20;6.30;;;;;;;12.76;100.00;99416.52;105796;1254;72808;-70
2023/05/31 01:49:03;;;;;;;11.60;6.20;;;;;;;12.83;100.00;99410.21;105661;1258;61841;-70
2023/05/31 01:51:30;;;;;;;11.40;7.10;;;;;;;12.38;100.00;99406.91;105683;1254;61324;-75
2023/05/31 01:53:57;;;;;;;13.00;6.70;;;;;;;12.20;100.00;99421.64;105598;1254;73109;-71
2023/05/31 01:56:25;;;;;;;11.00;6.60;;;;;;;12.57;100.00;99420.15;105667;1254;69072;-69
2023/05/31 01:58:53;;;;;;;10.40;7.10;;;;;;;12.55;100.00;99415.68;105725;1254;73196;-69
2023/05/31 02:01:20;;;;;;;14.30;6.80;;;;;;;12.58;100.00;99412.02;105502;1254;61639;-70
2023/05/31 02:03:49;;;;;;;10.20;6.40;;;;;;;12.68;100.00;99408.88;105764;1254;62176;-68
2023/05/31 02:06:16;;;;;;;9.00;6.30;;;;;;;12.78;100.00;99413.67;105855;1257;75523;-70
2023/05/31 02:08:43;;;;;;;14.90;6.90;;;;;;;12.95;100.00;99418.98;105899;1254;69197;-71
2023/05/31 02:11:10;;;;;;;10.10;6.40;;;;;;;13.03;100.00;99417.23;105866;1261;73081;-71
2023/05/31 02:13:37;;;;;;;10.20;8.00;;;;;;;12.82;100.00;99414.80;108331;1254;61104;-71
2023/05/31 02:16:05;;;;;;;10.40;6.90;;;;;;;12.79;100.00;99423.05;107184;1258;61231;-70
2023/05/31 02:18:35;;;;;;;9.20;6.40;;;;;;;12.87;100.00;99424.16;105767;1259;74606;-72
2023/05/31 02:21:02;;;;;;;9.50;7.40;;;;;;;12.84;100.00;99419.38;105768;1254;68736;-69
2023/05/31 02:23:30;;;;;;;18.30;8.60;;;;;;;12.83;100.00;99423.31;105871;1254;72747;-70
2023/05/31 02:25:57;;;;;;;22.50;12.60;;;;;;;12.90;100.00;99426.97;105645;1258;61536;-71
2023/05/31 02:28:24;;;;;;;28.60;19.00;;;;;;;12.94;100.00;99430.23;105952;1254;61193;-68
2023/05/31 02:30:55;;;;;;;36.20;25.30;;;;;;;13.18;100.00;99432.73;105854;1257;74514;-69
2023/05/31 02:33:23;;;;;;;30.90;18.70;;;;;;;13.12;100.00;99436.08;105902;1254;68701;-70
2023/05/31 02:35:50;;;;;;;24.60;16.10;;;;;;;13.06;100.00;99442.93;105837;1256;73073;-71
2023/05/31 02:38:19;;;;;;;37.60;21.20;;;;;;;12.99;100.00;99439.77;106009;1253;61668;-71
2023/05/31 02:40:46;;;;;;;29.50;16.60;;;;;;;13.07;100.00;99438.58;105717;1257;61344;-69
2023/05/31 02:43:13;;;;;;;25.80;14.80;;;;;;;13.18;100.00;99445.66;105694;1254;75059;-68
2023/05/31 02:45:39;;;;;;;21.00;8.70;;;;;;;13.18;100.00;99444.16;105882;1256;69026;-69
2023/05/31 02:48:08;;;;;;;18.30;9.40;;;;;;;13.12;100.00;99449.39;105628;1253;72950;-68
2023/05/31 02:50:35;;;;;;;12.30;8.30;;;;;;;13.27;100.00;99452.34;105715;1254;62395;-69
2023/05/31 02:53:04;;;;;;;18.40;9.50;;;;;;;13.29;100.00;99456.43;105631;1255;61334;-70
2023/05/31 02:55:39;;;;;;;15.60;7.60;;;;;;;13.41;100.00;99457.05;105977;1254;74576;-70
2023/05/31 02:58:26;;;;;;;10.60;7.40;;;;;;;13.54;100.00;99460.94;105756;1254;69283;-68
2023/05/31 03:01:11;;;;;;;9.80;7.10;;;;;;;13.62;100.00;99463.39;105844;1254;73147;-69
2023/05/31 03:03:45;;;;;;;11.20;6.80;;;;;;;13.79;100.00;99466.92;105970;1256;61671;-72
2023/05/31 03:06:21;;;;;;;15.00;7.00;;;;;;;14.02;100.00;99472.59;105705;1254;61855;-75
2023/05/31 03:08:48;;;;;;;13.50;7.20;;;;;;;15.84;85.77;99481.38;105867;1257;75015;-69
2023/05/31 03:11:15;;;;;;;11.40;6.40;;;;;;;16.82;75.42;99482.04;105658;1257;68948;-70
2023/05/31 03:13:43;;;;;;;11.10;6.10;;;;;;;17.07;73.10;99483.95;105569;1259;72454;-70
2023/05/31 03:16:11;;;;;;;11.70;5.70;;;;;;;17.26;71.39;99488.00;105644;1257;61401;-72
2023/05/31 03:18:38;;;;;;;7.80;5.80;;;;;;;17.49;70.48;99493.00;105671;1256;61282;-71
2023/05/31 03:21:06;;;;;;;11.40;6.70;;;;;;;17.59;68.09;99492.58;105597;1257;75222;-69
2023/05/31 03:23:34;;;;;;;10.60;6.30;;;;;;;15.64;82.38;99487.40;105612;1257;68454;-71
2023/05/31 03:26:02;;;;;;;11.90;6.30;;;;;;;15.35;87.51;99490.52;105744;1257;72333;-71
2023/05/31 03:28:30;;;;;;;18.60;6.20;;;;;;;15.46;87.17;99495.77;105285;1257;61564;-70
2023/05/31 03:30:56;;;;;;;11.60;6.00;;;;;;;15.61;85.22;99497.86;105671;1258;61266;-69
2023/05/31 03:33:23;;;;;;;9.50;6.10;;;;;;;15.73;84.79;99500.73;105580;1260;74934;-69
2023/05/31 03:35:52;;;;;;;12.60;6.40;;;;;;;15.83;83.89;99504.13;105594;1257;68504;-71
2023/05/31 03:38:19;;;;;;;20.40;7.30;;;;;;;16.07;83.08;99504.04;105559;1259;72617;-69
2023/05/31 03:40:46;;;;;;;14.10;6.90;;;;;;;16.30;81.02;99503.19;105522;1262;62051;-74
2023/05/31 03:43:14;;;;;;;;;;;;;;;16.39;79.21;99503.59;105638;1256;61401;-69
2023/05/31 03:45:42;;;;;;;7.30;6.60;;;;;;;16.47;79.35;99503.33;105594;1261;75110;-69
2023/05/31 03:48:10;;;;;;;16.70;6.50;;;;;;;16.67;77.12;99505.68;105570;1257;69189;-70
2023/05/31 03:50:40;;;;;;;14.20;6.70;;;;;;;17.01;74.45;99505.91;105656;1260;73101;-70
2023/05/31 03:53:07;;;;;;;26.00;8.20;;;;;;;17.19;73.48;99513.72;105763;1254;61259;-70
2023/05/31 03:55:36;;;;;;;12.90;6.00;;;;;;;16.96;75.91;99509.90;105770;1253;61269;-72
2023/05/31 03:58:02;;;;;;;14.40;6.80;;;;;;;17.03;74.40;99514.06;105757;1259;74516;-71
2023/05/31 04:00:29;;;;;;;10.00;6.20;;;;;;;17.11;73.37;99516.43;105681;1254;68547;-72
2023/05/31 04:02:57;;;;;;;7.80;5.20;;;;;;;17.24;72.20;99518.19;105965;1256;72525;-71
2023/05/31 04:05:29;;;;;;;32.30;7.60;;;;;;;17.44;70.62;99524.55;105866;1254;61215;-71
2023/05/31 04:07:57;;;;;;;12.30;5.70;;;;;;;17.60;69.57;99527.90;105728;1254;61295;-71
2023/05/31 04:10:24;;;;;;;12.10;6.20;;;;;;;17.79;67.30;99531.59;105642;1259;139374;-71
2023/05/31 04:12:51;;;;;;;10.90;6.10;;;;;;;17.86;66.42;99536.41;105751;1254;68663;-71
2023/05/31 04:15:18;;;;;;;13.70;5.40;;;;;;;18.14;65.20;99543.13;105813;1258;72565;-72
2023/05/31 04:17:45;;;;;;;17.10;5.40;;;;;;;18.13;64.49;99546.25;105706;1254;61211;-73
2023/05/31 04:20:12;;;;;;;10.60;5.90;;;;;;;18.27;63.62;99550.74;106027;1253;61848;-72
2023/05/31 04:22:39;;;;;;;11.50;6.30;;;;;;;18.31;62.90;99556.85;105977;1256;74552;-71
2023/05/31 04:25:06;;;;;;;24.30;6.60;;;;;;;18.20;62.80;99555.76;105791;1259;68620;-74
2023/05/31 04:27:40;;;;;;;11.90;6.00;;;;;;;18.27;61.35;99556.65;105951;1257;71544;-71
2023/05/31 04:30:07;;;;;;;13.30;6.30;;;;;;;18.43;61.33;99556.10;105818;1254;61276;-71
2023/05/31 04:32:35;;;;;;;12.30;6.10;;;;;;;18.52;59.54;99555.13;105924;1253;61224;-73
2023/05/31 04:35:03;;;;;;;16.20;7.00;;;;;;;18.59;58.89;99556.17;105958;1256;74435;-72
2023/05/31 04:37:32;;;;;;;14.80;8.00;;;;;;;18.57;60.61;99556.81;105960;1256;67331;-78
2023/05/31 04:40:05;;;;;;;9.20;5.30;;;;;;;18.89;57.47;99557.34;106009;1257;73053;-77
2023/05/31 04:42:32;;;;;;;12.50;5.90;;;;;;;18.57;58.30;99556.54;106044;1256;61254;-73
2023/05/31 04:45:01;;;;;;;19.50;6.00;;;;;;;18.39;59.78;99551.94;106053;1253;61323;-74
2023/05/31 04:47:32;;;;;;;7.90;3.90;;;;;;;18.59;59.14;99548.93;105796;1260;73456;-74
2023/05/31 04:49:59;;;;;;;6.80;3.60;;;;;;;18.66;57.51;99547.69;105915;1254;68541;-72
2023/05/31 04:52:31;;;;;;;8.60;4.40;;;;;;;18.66;57.72;99554.27;105931;1254;71571;-75
2023/05/31 04:55:00;;;;;;;8.20;5.30;;;;;;;18.86;57.60;99560.78;105943;1259;61307;-72
2023/05/31 04:57:27;;;;;;;7.20;4.70;;;;;;;19.44;54.89;99566.05;105942;1254;60237;-74
2023/05/31 04:59:57;;;;;;;9.60;4.70;;;;;;;19.51;54.81;99567.71;105844;1256;74901;-73
2023/05/31 05:02:26;;;;;;;9.80;4.40;;;;;;;19.97;53.13;99570.85;106046;1254;68578;-72
2023/05/31 05:04:54;;;;;;;8.40;4.60;;;;;;;20.10;52.27;99572.27;105995;1254;72554;-71
2023/05/31 05:07:21;;;;;;;12.10;5.10;;;;;;;20.23;50.45;99572.25;105773;1259;61154;-73
2023/05/31 05:09:48;;;;;;;9.90;4.00;;;;;;;20.27;50.99;99572.10;105818;1254;61301;-74
2023/05/31 05:12:15;;;;;;;13.90;4.20;;;;;;;20.49;50.09;99570.52;105880;1259;74345;-72
2023/05/31 05:14:44;;;;;;;6.70;3.60;;;;;;;20.29;49.79;99573.46;105964;1257;68479;-74
2023/05/31 05:17:11;;;;;;;8.50;4.60;;;;;;;20.16;50.51;99576.73;105721;1254;72521;-75
2023/05/31 05:19:38;;;;;;;15.70;4.90;;;;;;;20.05;51.60;99579.48;105742;1253;61278;-75
2023/05/31 05:22:05;;;;;;;10.60;5.10;;;;;;;20.24;51.10;99580.92;107261;1253;61270;-74
2023/05/31 05:24:33;;;;;;;7.20;4.70;;;;;;;20.60;50.36;99581.60;108914;1253;73418;-74
2023/05/31 05:27:00;;;;;;;19.40;5.30;;;;;;;20.92;49.57;99583.02;106749;1258;68448;-74
2023/05/31 05:29:28;;;;;;;9.80;3.90;;;;;;;21.27;47.72;99579.10;105872;1259;71528;-74
2023/05/31 05:31:56;;;;;;;9.10;4.60;;;;;;;21.30;47.85;99582.53;105949;1256;61266;-73
2023/05/31 05:34:23;;;;;;;8.00;4.10;;;;;;;21.36;46.55;99583.87;106015;1253;61250;-75
2023/05/31 05:36:52;;;;;;;9.80;4.00;;;;;;;21.24;46.84;99582.73;105858;1256;74549;-71
2023/05/31 05:39:19;;;;;;;6.00;3.50;;;;;;;21.48;46.86;99588.98;106006;1252;68582;-74
2023/05/31 05:41:47;;;;;;;8.10;3.90;;;;;;;21.50;45.45;99589.86;105886;1253;72656;-72
2023/05/31 05:44:14;;;;;;;5.00;3.80;;;;;;;21.36;45.15;99591.42;105728;1253;61375;-76
2023/05/31 05:46:41;;;;;;;7.70;3.40;;;;;;;21.48;45.59;99595.39;105779;1253;61286;-71
2023/05/31 05:49:08;;;;;;;7.20;3.70;;;;;;;21.85;44.94;99598.52;105744;1259;74268;-71
2023/05/31 05:51:38;;;;;;;8.10;4.20;;;;;;;22.18;44.14;99597.41;105835;1254;68560;-70
2023/05/31 05:54:07;;;;;;;6.90;4.30;;;;;;;22.35;42.98;99596.20;105944;1254;72557;-70
2023/05/31 05:56:35;;;;;;;10.20;5.20;;;;;;;22.41;42.97;99590.49;105799;1254;61283;-68
2023/05/31 05:59:02;;;;;;;25.30;5.20;;;;;;;22.27;42.57;99594.33;105722;1257;61768;-72
2023/05/31 06:01:47;;;;;;;10.60;3.90;;;;;;;22.58;41.73;99593.81;106022;1256;74602;-70
2023/05/31 06:04:16;;;;;;;16.30;4.40;;;;;;;21.98;42.58;99592.70;105995;1253;68596;-73
2023/05/31 06:06:43;;;;;;;9.00;3.50;;;;;;;21.94;42.31;99591.11;105734;1259;72691;-76
2023/05/31 06:09:13;;;;;;;10.40;3.40;;;;;;;22.00;41.88;99592.69;106012;1254;61219;-73
2023/05/31 06:11:40;;;;;;;9.30;4.00;;;;;;;21.70;42.45;99596.00;106002;1254;61225;-76
2023/05/31 06:14:07;;;;;;;7.80;3.60;;;;;;;21.67;42.52;99598.50;105817;1259;74407;-76
2023/05/31 06:16:38;;;;;;;7.00;3.60;;;;;;;21.73;42.76;99600.20;107993;1253;68723;-72
2023/05/31 06:19:05;;;;;;;10.20;3.40;;;;;;;22.35;40.88;99603.55;109251;1252;71370;-69
2023/05/31 06:21:32;;;;;;;5.20;3.10;;;;;;;22.44;39.99;99608.67;108887;1253;58937;-70
2023/05/31 06:24:02;;;;;;;5.70;2.80;;;;;;;22.86;39.30;99611.51;106668;1254;61250;-75
2023/05/31 06:26:29;;;;;;;6.90;3.10;;;;;;;22.95;38.78;99613.89;105777;1259;74631;-75
2023/05/31 06:29:00;;;;;;;6.10;3.10;;;;;;;22.47;38.56;99610.10;105908;1255;68591;-74
2023/05/31 06:31:46;;;;;;;6.10;3.10;;;;;;;22.26;38.35;99616.69;105428;1260;71549;-73
2023/05/31 06:34:13;;;;;;;15.70;3.90;;;;;;;22.35;38.12;99623.91;105780;1254;61280;-71
2023/05/31 06:36:41;;;;;;;8.70;3.50;;;;;;;22.90;38.64;99623.05;105788;1253;61237;-74
2023/05/31 06:39:09;;;;;;;9.40;4.10;;;;;;;23.41;38.17;99630.26;105711;1260;74457;-70
2023/05/31 06:41:37;;;;;;;6.90;3.50;;;;;;;23.75;37.30;99629.16;105746;1254;67681;-70
2023/05/31 06:44:19;;;;;;;6.30;3.00;;;;;;;23.30;37.93;99633.13;105704;1257;71510;-72
2023/05/31 06:46:56;;;;;;;8.70;3.40;;;;;;;22.86;38.00;99628.00;105757;1260;61330;-70
2023/05/31 06:49:23;;;;;;;6.90;4.00;;;;;;;22.40;38.35;99624.83;105880;1253;61276;-69
2023/05/31 06:52:13;;;;;;;12.10;4.30;;;;;;;22.51;39.27;99629.58;105639;1257;74842;-74
2023/05/31 06:55:18;;;;;;;7.80;4.30;;;;;;;22.98;38.60;99626.75;105551;1254;69282;-72
2023/05/31 06:57:47;;;;;;;13.80;6.70;;;;;;;22.78;39.57;99621.36;105879;1254;72300;-72
2023/05/31 07:00:15;;;;;;;11.50;6.70;;;;;;;22.99;40.06;99629.48;105781;1254;61253;-74
2023/05/31 07:02:42;;;;;;;11.00;5.70;;;;;;;22.87;40.11;99631.70;105708;1254;61285;-75
2023/05/31 07:05:09;;;;;;;18.80;6.00;;;;;;;23.06;39.91;99635.40;105822;1257;74526;-71
2023/05/31 07:07:37;;;;;;;12.40;4.90;;;;;;;23.40;38.69;99631.92;105852;1254;68673;-72
2023/05/31 07:10:05;;;;;;;10.90;5.00;;;;;;;23.31;38.16;99629.26;105746;1254;72538;-71
2023/05/31 07:12:33;;;;;;;12.50;5.90;;;;;;;22.68;39.08;99627.64;105856;1254;61292;-72
2023/05/31 07:14:59;;;;;;;9.10;5.10;;;;;;;22.61;39.83;99628.61;105831;1253;61246;-72
2023/05/31 07:17:26;;;;;;;11.40;5.30;;;;;;;23.17;39.10;99634.80;105757;1259;74354;-73
2023/05/31 07:19:53;;;;;;;7.90;4.40;;;;;;;23.48;37.27;99636.02;105798;1257;68467;-70
2023/05/31 07:22:22;;;;;;;13.90;5.10;;;;;;;23.32;37.51;99633.15;105805;1257;72644;-73
2023/05/31 07:24:48;;;;;;;10.60;4.60;;;;;;;25.00;36.39;99641.92;105776;1254;61320;-79
2023/05/31 07:27:15;;;;;;;12.70;3.50;;;;;;;25.68;33.75;99642.02;105703;1254;61267;-70
2023/05/31 07:29:42;;;;;;;8.80;3.30;;;;;;;25.38;32.45;99645.59;105793;1253;75086;-72
2023/05/31 07:32:09;;;;;;;5.30;3.00;;;;;;;24.72;32.64;99646.35;105598;1254;69139;-70
2023/05/31 07:34:36;;;;;;;6.50;3.40;;;;;;;24.55;34.05;99646.66;105806;1256;73133;-70
2023/05/31 07:37:02;;;;;;;3.90;2.70;;;;;;;24.90;34.30;99640.39;105746;1254;62555;-70
2023/05/31 07:39:30;;;;;;;7.70;3.20;;;;;;;25.63;32.27;99642.27;105645;1254;61276;-69
2023/05/31 07:41:58;;;;;;;3.70;2.60;;;;;;;25.85;31.01;99638.55;105664;1259;74615;-71
2023/05/31 07:44:25;;;;;;;;;;;;;;;25.53;30.62;99640.61;105860;1253;69062;-72
2023/05/31 07:46:52;;;;;;;5.00;2.70;;;;;;;25.46;31.34;99645.19;105850;1256;72986;-76
2023/05/31 07:49:19;;;;;;;7.80;3.10;;;;;;;25.84;31.48;99643.55;105639;1254;61291;-69
2023/05/31 07:51:46;;;;;;;8.30;3.20;;;;;;;25.96;31.54;99642.61;105785;1254;61250;-71
2023/05/31 07:54:13;;;;;;;6.20;3.10;;;;;;;26.00;31.36;99647.27;105909;1253;75219;-71
2023/05/31 07:56:40;;;;;;;6.90;3.30;;;;;;;26.13;31.04;99647.42;105852;1254;69239;-70
2023/05/31 07:59:07;;;;;;;9.60;3.90;;;;;;;26.05;31.18;99645.35;105863;1254;72808;-70
2023/05/31 08:01:35;;;;;;;8.90;3.60;;;;;;;26.31;31.14;99645.02;105854;1256;61266;-71
2023/05/31 08:04:09;;;;;;;9.10;3.00;;;;;;;26.65;30.47;99644.95;105952;1253;61295;-71
2023/05/31 08:06:36;;;;;;;10.10;3.20;;;;;;;25.59;30.96;99644.27;105769;1256;74368;-71
2023/05/31 08:09:07;;;;;;;7.70;2.80;;;;;;;24.70;31.50;99641.67;105970;1254;69276;-73
2023/05/31 08:11:35;;;;;;;11.80;2.60;;;;;;;26.38;30.19;99649.57;105917;1256;72328;-71
2023/05/31 08:14:03;;;;;;;6.60;2.80;;;;;;;26.95;28.86;99651.88;105910;1256;61260;-74
2023/05/31 08:16:32;;;;;;;4.50;2.80;;;;;;;25.63;29.64;99650.58;105750;1253;61214;-70
2023/05/31 08:18:58;;;;;;;8.00;3.30;;;;;;;24.63;31.30;99645.25;105959;1256;74517;-72
2023/05/31 08:21:25;;;;;;;6.80;3.00;;;;;;;24.69;31.44;99641.19;105651;1256;68408;-70
2023/05/31 08:23:52;;;;;;;6.10;3.00;;;;;;;24.79;31.53;99641.98;105336;1264;72849;-70
2023/05/31 08:26:19;;;;;;;14.60;3.90;;;;;;;24.55;30.99;99640.82;105556;1257;61227;-72
2023/05/31 08:28:46;;;;;;;8.70;3.40;;;;;;;24.43;31.50;99636.22;105676;1256;61238;-74
2023/05/31 08:31:12;;;;;;;7.20;3.10;;;;;;;24.77;31.16;99638.66;105663;1260;74394;-77
2023/05/31 08:33:51;;;;;;;8.20;3.40;;;;;;;26.08;29.73;99642.65;107815;1256;69040;-71
2023/05/31 08:36:20;;;;;;;7.40;3.90;;;;;;;25.72;29.69;99642.77;107502;1256;71402;-71
2023/05/31 08:38:47;;;;;;;8.80;3.90;;;;;;;24.84;30.95;99636.77;105379;1257;61453;-72
2023/05/31 08:41:13;;;;;;;5.10;3.20;;;;;;;25.63;29.69;99643.54;105699;1256;61333;-73
2023/05/31 08:43:40;;;;;;;8.30;3.20;;;;;;;25.94;28.68;99641.58;105585;1260;74443;-71
2023/05/31 08:46:07;;;;;;;14.50;4.50;;;;;;;26.09;28.53;99643.88;105721;1256;68480;-71
2023/05/31 08:48:47;;;;;;;11.20;3.80;;;;;;;25.18;29.56;99637.53;105607;1260;71051;-73
2023/05/31 08:51:14;;;;;;;5.30;3.90;;;;;;;26.17;28.26;99640.67;105654;1256;61250;-71
2023/05/31 08:53:42;;;;;;;10.30;5.10;;;;;;;25.26;29.76;99632.52;105892;1254;61272;-72
2023/05/31 08:56:08;;;;;;;11.80;4.70;;;;;;;24.96;31.20;99638.20;105746;1259;74369;-72
2023/05/31 08:58:37;;;;;;;15.40;4.20;;;;;;;25.10;30.11;99633.14;105839;1257;68571;-72
2023/05/31 09:01:05;;;;;;;9.80;4.70;;;;;;;24.80;30.85;99634.61;105643;1258;73451;-71
2023/05/31 09:03:32;;;;;;;;;;;;;;;24.94;31.01;99631.55;105869;1253;61194;-71
2023/05/31 09:05:59;;;;;;;9.10;4.60;;;;;;;25.22;30.33;99635.06;105912;1254;61263;-71
2023/05/31 09:08:26;;;;;;;10.20;5.10;;;;;;;24.81;30.73;99638.56;105884;1257;74326;-72
2023/05/31 09:10:53;;;;;;;28.40;23.00;;;;;;;23.97;31.55;99635.75;105996;1254;69062;-73
2023/05/31 09:13:20;;;;;;;23.20;14.80;;;;;;;23.30;32.23;99627.13;105953;1253;72654;-72
2023/05/31 09:15:47;;;;;;;17.10;10.40;;;;;;;22.96;33.68;99625.79;105924;1254;61237;-77
2023/05/31 09:18:21;;;;;;;18.20;8.40;;;;;;;23.69;32.91;99631.23;105502;1263;61321;-72
2023/05/31 09:20:49;;;;;;;11.10;6.30;;;;;;;24.36;32.14;99632.21;105928;1256;74393;-75
2023/05/31 09:23:19;;;;;;;8.60;6.00;;;;;;;24.31;31.69;99630.35;105935;1253;68498;-72
2023/05/31 09:25:52;;;;;;;14.10;6.00;;;;;;;23.95;31.65;99627.16;105844;1254;72600;-70
2023/05/31 09:28:21;;;;;;;11.00;4.90;;;;;;;23.54;32.08;99624.36;105659;1261;61279;-73
2023/05/31 09:31:06;;;;;;;6.90;4.90;;;;;;;23.94;32.95;99626.73;105683;1256;61362;-72
2023/05/31 09:33:41;;;;;;;7.60;5.80;;;;;;;24.48;31.69;99626.73;105683;1260;74313;-72
2023/05/31 09:36:09;;;;;;;12.50;7.00;;;;;;;25.35;30.31;99629.47;105366;1256;69970;-71
2023/05/31 09:38:36;;;;;;;;;;;;;;;24.71;30.42;99628.54;105718;1257;72590;-71
2023/05/31 09:41:18;;;;;;;12.20;6.10;;;;;;;24.76;30.90;99628.29;105563;1257;61779;-69
2023/05/31 09:43:47;;;;;;;9.10;4.10;;;;;;;24.23;31.41;99618.41;105672;1256;61289;-71
2023/05/31 09:46:15;;;;;;;11.20;4.70;;;;;;;24.09;32.14;99619.62;105728;1259;74334;-72
2023/05/31 09:48:43;;;;;;;9.40;3.30;;;;;;;24.45;31.04;99621.48;105253;1257;68467;-71
2023/05/31 09:51:11;;;;;;;8.90;3.00;;;;;;;24.35;30.72;99618.96;105352;1265;72464;-72
2023/05/31 09:53:42;;;;;;;5.20;3.10;;;;;;;24.12;30.69;99615.19;105666;1257;61344;-69
2023/05/31 09:56:11;;;;;;;5.50;2.70;;;;;;;24.01;30.38;99615.94;105343;1262;61413;-71
2023/05/31 09:58:38;;;;;;;9.80;2.60;;;;;;;24.64;29.85;99617.04;105322;1264;74435;-73
2023/05/31 10:01:05;;;;;;;4.50;2.30;;;;;;;24.74;29.17;99617.51;105497;1257;68390;-73
2023/05/31 10:03:33;;;;;;;4.00;2.60;;;;;;;24.49;30.17;99609.06;105336;1260;72660;-72
2023/05/31 10:06:00;;;;;;;6.90;3.00;;;;;;;24.80;30.41;99613.36;105675;1257;62449;-72
2023/05/31 10:08:27;;;;;;;8.50;5.90;;;;;;;24.96;29.97;99615.70;105697;1257;61237;-72
2023/05/31 10:10:57;;;;;;;6.90;5.10;;;;;;;24.93;29.22;99617.66;105676;1260;74196;-71
2023/05/31 10:13:27;;;;;;;10.70;4.60;;;;;;;24.55;29.64;99611.11;105686;1257;68628;-71
2023/05/31 10:15:56;;;;;;;5.90;2.10;;;;;;;24.86;30.07;99617.52;105676;1261;72621;-70
2023/05/31 10:18:28;;;;;;;8.60;2.80;;;;;;;25.00;29.16;99615.05;105720;1257;61944;-72
2023/05/31 10:20:58;;;;;;;11.10;2.60;;;;;;;25.17;29.20;99613.77;105694;1261;61158;-71
2023/05/31 10:23:27;;;;;;;8.30;3.00;;;;;;;25.24;28.20;99615.48;105435;1264;75489;-71
2023/05/31 10:26:17;;;;;;;4.50;2.50;;;;;;;25.12;28.68;99618.60;105499;1256;69896;-71
2023/05/31 10:28:46;;;;;;;8.50;2.00;;;;;;;24.92;28.29;99611.91;105891;1254;71814;-71
2023/05/31 10:31:14;;;;;;;6.30;2.50;;;;;;;24.90;29.17;99609.64;105972;1254;62296;-72
2023/05/31 10:33:44;;;;;;;5.30;2.50;;;;;;;25.31;28.28;99622.13;105891;1254;62810;-74
2023/05/31 10:36:11;;;;;;;19.80;3.80;;;;;;;25.49;27.41;99621.09;106014;1256;74431;-68
2023/05/31 10:38:59;;;;;;;5.40;2.00;;;;;;;25.73;27.19;99617.08;105861;1259;69142;-73
2023/05/31 10:41:28;;;;;;;5.80;2.70;;;;;;;25.50;27.37;99618.53;105979;1255;72621;-75
2023/05/31 10:44:05;;;;;;;4.00;2.40;;;;;;;25.20;27.36;99618.73;106041;1254;61368;-72
2023/05/31 10:46:32;;;;;;;6.60;2.70;;;;;;;25.11;28.36;99613.22;106013;1256;61225;-73
2023/05/31 10:49:00;;;;;;;4.80;2.60;;;;;;;25.07;28.45;99616.25;105659;1259;74263;-78
2023/05/31 10:51:45;;;;;;;5.70;2.80;;;;;;;24.82;27.63;99609.80;105766;1254;68236;-71
2023/05/31 10:54:19;;;;;;;5.10;2.30;;;;;;;24.57;27.76;99613.77;105694;1254;71979;-72
2023/05/31 10:56:57;;;;;;;7.00;3.20;;;;;;;24.45;28.11;99614.97;105873;1253;61244;-72
2023/05/31 10:59:25;;;;;;;4.30;3.20;;;;;;;24.28;27.86;99608.79;105855;1254;61235;-73
2023/05/31 11:01:52;;;;;;;5.60;3.90;;;;;;;24.49;28.12;99601.35;105719;1257;74555;-72
2023/05/31 11:04:24;;;;;;;7.90;3.70;;;;;;;24.62;28.11;99606.10;105814;1257;69028;-72
2023/05/31 11:06:52;;;;;;;5.10;3.30;;;;;;;25.11;27.64;99608.27;105800;1256;71773;-72
2023/05/31 11:09:20;;;;;;;;;;;;;;;25.06;26.64;99608.14;105873;1254;61309;-72
2023/05/31 11:11:48;;;;;;;10.50;3.70;;;;;;;25.17;27.00;99606.73;105812;1254;61215;-71
2023/05/31 11:14:15;;;;;;;8.00;3.30;;;;;;;24.74;27.76;99604.31;105767;1260;74729;-72
2023/05/31 11:17:03;;;;;;;8.10;5.80;;;;;;;25.12;28.22;99603.60;105769;1258;68688;-76
2023/05/31 11:19:31;;;;;;;9.20;3.00;;;;;;;25.15;27.27;99601.81;105848;1258;72500;-73
2023/05/31 11:22:18;;;;;;;13.30;5.30;;;;;;;25.52;26.71;99608.59;105681;1253;62576;-71
2023/05/31 11:24:52;;;;;;;6.00;3.00;;;;;;;26.29;25.87;99606.83;105671;1253;61347;-72
2023/05/31 11:27:20;;;;;;;5.60;2.30;;;;;;;26.67;25.33;99606.20;105810;1257;74564;-69
2023/05/31 11:29:50;;;;;;;6.20;2.00;;;;;;;26.51;25.09;99605.61;105846;1254;68371;-72
2023/05/31 11:32:41;;;;;;;4.50;2.50;;;;;;;26.46;25.45;99607.14;105550;1260;72666;-74